Terminal Aerodrome Forecast
Issued by NWS

Home | Current Version | Previous Version | Text Only | Print | Product List | Glossary On
Versions: 1 2 3 4 5 6 7 8 9 10 11 12 13 14
000
FTUS44 KLZK 110735 AAA
TAFLIT
TAF AMD
KLIT 110735Z 1108/1206 15006KT P6SM OVC050 WS020/20040KT
     FM111200 16007KT P6SM OVC035 WS020/20045KT
     FM111600 18011KT P6SM VCSH OVC025
     FM120200 19011KT 5SM BR VCSH OVC009=

USA.gov is the U.S. government's official web portal to all federal, state and local government web resources and services.